createdAt,value
2019-01-26T00:02:20.630Z,2.10
2019-01-26T00:04:50.054Z,2.20
2019-01-26T00:07:19.432Z,2.20
2019-01-26T00:09:48.748Z,2.30
2019-01-26T00:12:17.948Z,2.30
2019-01-26T00:14:47.281Z,2.30
2019-01-26T00:17:16.644Z,2.30
2019-01-26T00:19:45.963Z,2.30
2019-01-26T00:22:15.342Z,2.40
2019-01-26T00:24:44.686Z,2.40
2019-01-26T00:27:14.084Z,2.40
2019-01-26T00:29:43.354Z,2.40
2019-01-26T00:32:12.662Z,2.40
2019-01-26T00:34:42.102Z,2.40
2019-01-26T00:37:11.401Z,2.40
2019-01-26T00:39:40.743Z,2.30
2019-01-26T00:42:10.006Z,2.30
2019-01-26T00:44:39.255Z,2.30
2019-01-26T00:47:08.609Z,2.30
2019-01-26T00:49:37.825Z,2.30
2019-01-26T00:52:07.181Z,2.20
2019-01-26T00:54:36.574Z,2.20
2019-01-26T00:57:05.909Z,2.10
2019-01-26T00:59:35.272Z,2.10
2019-01-26T01:02:04.636Z,2.00
2019-01-26T01:04:34.358Z,2.00
2019-01-26T01:07:03.691Z,1.90
2019-01-26T01:09:33.043Z,1.90
2019-01-26T01:12:04.643Z,1.90
2019-01-26T01:14:33.881Z,1.90
2019-01-26T01:17:22.301Z,1.90
2019-01-26T01:19:51.632Z,1.90
2019-01-26T01:22:22.100Z,1.80
2019-01-26T01:24:51.530Z,1.80
2019-01-26T01:27:21.066Z,1.80
2019-01-26T01:29:50.441Z,1.80
2019-01-26T01:32:19.713Z,1.80
2019-01-26T01:34:49.104Z,1.80
2019-01-26T01:37:18.419Z,1.80
2019-01-26T01:39:47.693Z,1.90
2019-01-26T01:42:17.045Z,1.90
2019-01-26T01:44:46.401Z,1.90
2019-01-26T01:47:15.685Z,1.90
2019-01-26T01:49:44.952Z,1.90
2019-01-26T01:52:14.237Z,1.90
2019-01-26T01:54:43.602Z,1.90
2019-01-26T01:57:12.861Z,1.90
2019-01-26T01:59:42.081Z,1.90
2019-01-26T02:02:11.473Z,1.90
2019-01-26T02:04:40.823Z,1.90
2019-01-26T02:07:27.315Z,1.90
2019-01-26T02:09:56.649Z,1.90
2019-01-26T02:12:26.001Z,1.90
2019-01-26T02:14:55.169Z,1.90
2019-01-26T02:17:24.505Z,1.90
2019-01-26T02:19:53.873Z,1.90
2019-01-26T02:22:23.261Z,1.90
2019-01-26T02:25:38.363Z,1.90
2019-01-26T02:28:07.778Z,1.90
2019-01-26T02:30:37.182Z,2.00
2019-01-26T02:33:06.881Z,2.00
2019-01-26T02:35:36.157Z,2.00
2019-01-26T02:38:05.586Z,2.10
2019-01-26T02:40:34.931Z,2.10
2019-01-26T02:43:04.403Z,2.10
2019-01-26T02:45:33.725Z,2.20
2019-01-26T02:48:03.016Z,2.20
2019-01-26T02:50:32.334Z,2.30
2019-01-26T02:53:01.714Z,2.30
2019-01-26T02:55:30.985Z,2.30
2019-01-26T02:58:00.243Z,2.30
2019-01-26T03:00:29.655Z,2.30
2019-01-26T03:02:58.943Z,2.40
2019-01-26T03:05:28.310Z,2.40
2019-01-26T03:07:57.574Z,2.40
2019-01-26T03:10:26.929Z,2.30
2019-01-26T03:12:56.264Z,2.30
2019-01-26T03:15:25.677Z,2.30
2019-01-26T03:17:55.041Z,2.30
2019-01-26T03:20:24.447Z,2.30
2019-01-26T03:22:53.780Z,2.30
2019-01-26T03:25:23.057Z,2.20
2019-01-26T03:27:52.383Z,2.30
2019-01-26T03:30:25.599Z,2.30
2019-01-26T03:32:54.935Z,2.20
2019-01-26T03:35:24.289Z,2.20
2019-01-26T03:37:53.609Z,2.20
2019-01-26T03:40:23.376Z,2.20
2019-01-26T03:42:52.677Z,2.20
2019-01-26T03:45:23.104Z,2.10
2019-01-26T03:47:52.490Z,2.10
2019-01-26T03:50:21.870Z,2.10
2019-01-26T03:52:51.306Z,2.20
2019-01-26T03:55:21.402Z,2.20
2019-01-26T03:57:50.956Z,2.20
2019-01-26T04:00:25.592Z,2.20
2019-01-26T04:02:55.065Z,2.20
2019-01-26T04:05:24.468Z,2.20
2019-01-26T04:07:53.759Z,2.20
2019-01-26T04:10:23.034Z,2.30
2019-01-26T04:12:52.291Z,2.30
2019-01-26T04:15:21.922Z,2.30
2019-01-26T04:17:51.297Z,2.30
2019-01-26T04:20:21.639Z,2.30
2019-01-26T04:22:51.029Z,2.30
2019-01-26T04:25:20.327Z,2.40
2019-01-26T04:27:49.569Z,2.40
2019-01-26T04:30:21.960Z,2.50
2019-01-26T04:32:51.388Z,2.50
2019-01-26T04:35:20.708Z,2.50
2019-01-26T04:37:49.951Z,2.50
2019-01-26T04:40:19.472Z,2.60
2019-01-26T04:42:48.665Z,2.60
2019-01-26T04:45:20.099Z,2.70
2019-01-26T04:47:49.666Z,2.80
2019-01-26T04:50:19.292Z,2.80
2019-01-26T04:52:48.675Z,2.80
2019-01-26T04:55:19.290Z,2.90
2019-01-26T04:57:49.004Z,2.90
2019-01-26T05:00:20.552Z,3.00
2019-01-26T05:02:49.756Z,3.00
2019-01-26T05:05:19.028Z,3.10
2019-01-26T05:07:48.364Z,3.10
2019-01-26T05:10:18.442Z,3.20
2019-01-26T05:12:47.980Z,3.30
2019-01-26T05:15:17.418Z,3.30
2019-01-26T05:17:46.779Z,3.40
2019-01-26T05:20:18.617Z,3.40
2019-01-26T05:22:48.910Z,3.40
2019-01-26T05:25:18.263Z,3.40
2019-01-26T05:27:47.744Z,3.40
2019-01-26T05:30:19.814Z,3.40
2019-01-26T05:32:49.125Z,3.40
2019-01-26T05:35:18.478Z,3.40
2019-01-26T05:37:47.874Z,3.40
2019-01-26T05:40:17.452Z,3.40
2019-01-26T05:42:46.902Z,3.40
2019-01-26T05:45:18.760Z,3.40
2019-01-26T05:47:49.593Z,3.50
2019-01-26T05:50:20.636Z,3.50
2019-01-26T05:52:51.905Z,3.40
2019-01-26T05:55:21.264Z,3.50
2019-01-26T05:57:51.325Z,3.50
2019-01-26T06:00:33.778Z,3.50
2019-01-26T06:03:03.103Z,3.50
2019-01-26T06:05:32.428Z,3.50
2019-01-26T06:08:01.644Z,3.60
2019-01-26T06:10:31.032Z,3.60
2019-01-26T06:13:00.292Z,3.60
2019-01-26T06:15:29.565Z,3.60
2019-01-26T06:17:58.882Z,3.60
2019-01-26T06:20:28.168Z,3.60
2019-01-26T06:22:57.508Z,3.60
2019-01-26T06:25:26.732Z,3.60
2019-01-26T06:27:56.117Z,3.60
2019-01-26T06:30:26.386Z,3.60
2019-01-26T06:32:55.674Z,3.60
2019-01-26T06:35:25.036Z,3.70
2019-01-26T06:37:54.492Z,3.70
2019-01-26T06:40:23.769Z,3.70
2019-01-26T06:43:30.452Z,3.70
2019-01-26T06:46:16.900Z,3.80
2019-01-26T06:48:47.906Z,3.80
2019-01-26T06:51:17.248Z,3.80
2019-01-26T06:53:49.682Z,3.90
2019-01-26T06:56:23.630Z,3.90
2019-01-26T06:58:53.168Z,3.90
2019-01-26T07:01:22.429Z,4.00
2019-01-26T07:03:52.934Z,4.00
2019-01-26T07:06:30.883Z,4.00
2019-01-26T07:09:02.262Z,4.00
2019-01-26T07:11:31.677Z,4.10
2019-01-26T07:14:01.102Z,4.10
2019-01-26T07:16:30.386Z,4.10
2019-01-26T07:18:59.758Z,4.10
2019-01-26T07:21:29.158Z,4.10
2019-01-26T07:23:58.524Z,4.10
2019-01-26T07:26:27.874Z,4.20
2019-01-26T07:28:57.156Z,4.20
2019-01-26T07:31:26.662Z,4.30
2019-01-26T07:33:56.361Z,4.30
2019-01-26T07:36:44.793Z,4.40
2019-01-26T07:39:14.156Z,4.40
2019-01-26T07:41:43.542Z,4.50
2019-01-26T07:44:28.362Z,4.50
2019-01-26T07:46:57.793Z,4.50
2019-01-26T07:49:27.135Z,4.60
2019-01-26T07:51:56.421Z,4.60
2019-01-26T07:54:25.805Z,4.70
2019-01-26T07:56:56.306Z,4.80
2019-01-26T07:59:25.847Z,4.80
2019-01-26T08:01:55.221Z,4.90
2019-01-26T08:04:26.987Z,4.90
2019-01-26T08:06:56.481Z,4.90
2019-01-26T08:09:26.179Z,4.90
2019-01-26T08:11:57.282Z,4.90
2019-01-26T08:14:27.035Z,5.00
2019-01-26T08:16:56.761Z,5.00
2019-01-26T08:19:26.229Z,5.00
2019-01-26T08:21:55.879Z,5.00
2019-01-26T08:24:27.810Z,5.00
2019-01-26T08:26:59.189Z,5.00
2019-01-26T08:29:43.609Z,5.00
2019-01-26T08:32:21.111Z,5.00
2019-01-26T08:34:55.107Z,5.00
2019-01-26T08:37:35.839Z,5.00
2019-01-26T08:40:08.676Z,4.90
2019-01-26T08:42:40.523Z,4.90
2019-01-26T08:45:22.757Z,5.00
2019-01-26T08:48:07.665Z,5.00
2019-01-26T08:50:50.421Z,5.00
2019-01-26T08:53:24.451Z,5.00
2019-01-26T08:55:55.075Z,5.10
2019-01-26T08:58:24.931Z,5.00
2019-01-26T09:00:54.405Z,5.00
2019-01-26T09:03:52.841Z,5.10
2019-01-26T09:06:43.869Z,5.10
2019-01-26T09:09:14.221Z,5.10
2019-01-26T09:11:43.484Z,5.20
2019-01-26T09:14:12.819Z,5.20
2019-01-26T09:16:42.057Z,5.20
2019-01-26T09:19:11.381Z,5.20
2019-01-26T09:21:42.751Z,5.20
2019-01-26T09:24:12.269Z,5.30
2019-01-26T09:26:41.541Z,5.30
2019-01-26T09:29:11.999Z,5.20
2019-01-26T09:31:53.289Z,5.20
2019-01-26T09:34:22.373Z,5.30
2019-01-26T09:36:51.721Z,5.30
2019-01-26T09:39:21.227Z,5.40
2019-01-26T09:41:50.646Z,5.40
2019-01-26T09:44:22.009Z,5.50
2019-01-26T09:46:51.394Z,5.50
2019-01-26T09:49:20.766Z,5.60
2019-01-26T09:51:50.061Z,5.70
2019-01-26T09:54:20.368Z,5.70
2019-01-26T09:56:49.601Z,5.80
2019-01-26T09:59:18.995Z,5.80
2019-01-26T10:01:48.371Z,5.80
2019-01-26T10:04:17.670Z,5.80
2019-01-26T10:06:46.996Z,5.80
2019-01-26T10:09:16.373Z,5.80
2019-01-26T10:11:45.839Z,5.80
2019-01-26T10:14:15.192Z,5.80
2019-01-26T10:16:44.565Z,5.80
2019-01-26T10:19:13.954Z,5.80
2019-01-26T10:21:43.309Z,5.80
2019-01-26T10:24:12.727Z,5.80
2019-01-26T10:26:42.139Z,5.90
2019-01-26T10:29:11.505Z,5.80
2019-01-26T10:31:40.893Z,5.90
2019-01-26T10:34:10.327Z,5.90
2019-01-26T10:36:45.741Z,5.90
2019-01-26T10:39:21.357Z,5.90
2019-01-26T10:42:11.409Z,5.90
2019-01-26T10:44:41.015Z,6.00
2019-01-26T10:47:10.421Z,6.00
2019-01-26T10:49:42.961Z,6.00
2019-01-26T10:52:12.917Z,6.00
2019-01-26T10:54:45.209Z,6.00
2019-01-26T10:57:15.449Z,5.90
2019-01-26T10:59:44.973Z,5.90
2019-01-26T11:02:14.797Z,5.80
2019-01-26T11:04:44.855Z,5.80
2019-01-26T11:07:15.794Z,5.80
2019-01-26T11:09:46.497Z,5.80
2019-01-26T11:12:16.013Z,5.80
2019-01-26T11:14:45.509Z,5.80
2019-01-26T11:17:14.957Z,5.80
2019-01-26T11:19:44.429Z,5.70
2019-01-26T11:22:15.218Z,5.70
2019-01-26T11:24:45.731Z,5.70
2019-01-26T11:27:17.214Z,5.70
2019-01-26T11:29:46.826Z,5.70
2019-01-26T11:32:18.833Z,5.70
2019-01-26T11:35:25.451Z,5.70
2019-01-26T11:41:14.570Z,5.70
2019-01-26T11:43:49.609Z,5.60
2019-01-26T11:46:25.365Z,5.70
2019-01-26T11:48:59.490Z,5.70
2019-01-26T11:52:14.927Z,5.80
2019-01-26T11:55:04.193Z,5.80
2019-01-26T11:57:38.233Z,5.80
2019-01-26T12:00:59.435Z,5.90
2019-01-26T12:04:18.605Z,5.90
2019-01-26T12:06:56.761Z,5.90
2019-01-26T12:09:26.245Z,6.00
2019-01-26T12:14:32.046Z,6.20
2019-01-26T12:17:01.473Z,6.20
2019-01-26T12:19:30.912Z,6.30
2019-01-26T12:22:05.183Z,6.30
2019-01-26T12:27:24.455Z,6.50
2019-01-26T12:29:54.110Z,6.50
2019-01-26T12:32:23.785Z,6.50
2019-01-26T12:34:53.367Z,6.60
2019-01-26T12:37:24.970Z,6.60
2019-01-26T12:39:54.696Z,6.70
2019-01-26T12:42:25.138Z,6.70
2019-01-26T12:44:55.386Z,6.70
2019-01-26T12:47:24.699Z,6.70
2019-01-26T12:49:54.085Z,6.70
2019-01-26T12:52:23.493Z,6.70
2019-01-26T12:54:52.893Z,6.70
2019-01-26T12:57:22.277Z,6.60
2019-01-26T12:59:51.639Z,6.50
2019-01-26T13:02:21.005Z,6.50
2019-01-26T13:04:50.418Z,6.60
2019-01-26T13:07:19.817Z,6.60
2019-01-26T13:09:49.301Z,6.60
2019-01-26T13:12:19.653Z,6.70
2019-01-26T13:14:49.849Z,6.70
2019-01-26T13:17:19.181Z,6.70
2019-01-26T13:19:48.656Z,6.70
2019-01-26T13:22:17.945Z,6.70
2019-01-26T13:24:47.727Z,6.70
2019-01-26T13:27:17.143Z,6.70
2019-01-26T13:29:46.531Z,6.70
2019-01-26T13:32:15.996Z,6.60
2019-01-26T13:34:45.325Z,6.60
2019-01-26T13:37:14.785Z,6.60
2019-01-26T13:39:44.105Z,6.60
2019-01-26T13:42:13.365Z,6.60
2019-01-26T13:44:42.685Z,6.60
2019-01-26T13:47:12.041Z,6.60
2019-01-26T13:49:44.072Z,6.60
2019-01-26T13:52:14.089Z,6.60
2019-01-26T13:54:43.517Z,6.70
2019-01-26T13:57:12.885Z,6.70
2019-01-26T13:59:42.364Z,6.70
2019-01-26T14:02:12.516Z,6.80
2019-01-26T14:04:42.071Z,6.80
2019-01-26T14:07:11.529Z,6.80
2019-01-26T14:09:42.953Z,6.80
2019-01-26T14:12:12.303Z,6.80
2019-01-26T14:14:41.677Z,6.70
2019-01-26T14:17:11.037Z,6.70
2019-01-26T14:19:41.847Z,6.70
2019-01-26T14:22:11.145Z,6.60
2019-01-26T14:24:40.405Z,6.60
2019-01-26T14:27:09.828Z,6.60
2019-01-26T14:29:41.748Z,6.60
2019-01-26T14:32:12.058Z,6.70
2019-01-26T14:34:43.487Z,6.60
2019-01-26T14:37:13.905Z,6.60
2019-01-26T14:39:44.237Z,6.60
2019-01-26T14:42:13.589Z,6.60
2019-01-26T14:44:42.971Z,6.60
2019-01-26T14:47:12.509Z,6.60
2019-01-26T14:49:42.047Z,6.50
2019-01-26T14:52:12.489Z,6.50
2019-01-26T14:54:43.389Z,6.50
2019-01-26T14:57:14.116Z,6.60
2019-01-26T14:59:44.407Z,6.50
2019-01-26T15:02:13.772Z,6.50
2019-01-26T15:04:43.189Z,6.50
2019-01-26T15:07:12.561Z,6.50
2019-01-26T15:10:05.919Z,6.50
2019-01-26T15:12:35.632Z,6.50
2019-01-26T15:15:05.897Z,6.50
2019-01-26T15:17:35.319Z,6.50
2019-01-26T15:20:06.272Z,6.50
2019-01-26T15:22:35.595Z,6.50
2019-01-26T15:25:06.463Z,6.50
2019-01-26T15:27:35.869Z,6.50
2019-01-26T15:30:08.952Z,6.50
2019-01-26T15:32:38.248Z,6.50
2019-01-26T15:35:07.673Z,6.50
2019-01-26T15:37:39.309Z,6.50
2019-01-26T15:40:09.260Z,6.50
2019-01-26T15:42:39.740Z,6.50
2019-01-26T15:45:14.677Z,6.40
2019-01-26T15:47:44.183Z,6.50
2019-01-26T15:50:13.924Z,6.50
2019-01-26T15:52:43.369Z,6.50
2019-01-26T15:55:17.670Z,6.50
2019-01-26T15:57:47.012Z,6.40
2019-01-26T16:00:24.552Z,6.40
2019-01-26T16:02:54.077Z,6.50
2019-01-26T16:05:23.510Z,6.50
2019-01-26T16:07:53.007Z,6.50
2019-01-26T16:10:23.016Z,6.60
2019-01-26T16:12:53.970Z,6.60
2019-01-26T16:15:26.614Z,6.60
2019-01-26T16:17:56.154Z,6.60
2019-01-26T16:20:25.500Z,6.60
2019-01-26T16:22:54.876Z,6.60
2019-01-26T16:25:24.261Z,6.60
2019-01-26T16:27:54.072Z,6.60
2019-01-26T16:30:28.800Z,6.60
2019-01-26T16:32:58.402Z,6.60
2019-01-26T16:35:27.930Z,6.70
2019-01-26T16:37:57.429Z,6.70
2019-01-26T16:40:29.210Z,6.60
2019-01-26T16:43:00.622Z,6.70
2019-01-26T16:45:35.049Z,6.70
2019-01-26T16:48:05.558Z,6.80
2019-01-26T16:50:36.825Z,6.80
2019-01-26T16:53:06.346Z,6.80
2019-01-26T16:55:35.796Z,6.70
2019-01-26T16:58:05.676Z,6.70
2019-01-26T17:00:58.908Z,6.70
2019-01-26T17:03:28.394Z,6.70
2019-01-26T17:05:57.849Z,6.70
2019-01-26T17:08:27.245Z,6.70
2019-01-26T17:10:56.666Z,6.70
2019-01-26T17:13:26.151Z,6.80
2019-01-26T17:15:55.650Z,6.80
2019-01-26T17:18:25.410Z,6.80
2019-01-26T17:20:54.806Z,6.80
2019-01-26T17:23:24.398Z,6.80
2019-01-26T17:25:53.760Z,6.80
2019-01-26T17:28:23.285Z,6.80
2019-01-26T17:30:53.416Z,6.80
2019-01-26T17:33:23.000Z,6.90
2019-01-26T17:35:52.636Z,6.90
2019-01-26T17:38:23.238Z,6.90
2019-01-26T17:40:54.555Z,6.90
2019-01-26T17:43:23.711Z,6.90
2019-01-26T17:45:53.014Z,6.90
2019-01-26T17:48:22.615Z,7.00
2019-01-26T17:50:51.967Z,7.00
2019-01-26T17:53:21.812Z,7.00
2019-01-26T17:55:51.255Z,7.00
2019-01-26T17:58:20.566Z,7.00
2019-01-26T18:00:57.944Z,7.00
2019-01-26T18:03:27.394Z,7.00
2019-01-26T18:05:56.667Z,7.00
2019-01-26T18:08:25.989Z,7.00
2019-01-26T18:10:55.463Z,7.00
2019-01-26T18:13:25.070Z,7.00
2019-01-26T18:15:56.822Z,7.10
2019-01-26T18:18:26.300Z,7.10
2019-01-26T18:20:57.802Z,7.10
2019-01-26T18:23:30.772Z,7.10
2019-01-26T18:26:00.378Z,7.10
2019-01-26T18:28:29.796Z,7.20
2019-01-26T18:31:05.292Z,7.20
2019-01-26T18:33:34.644Z,7.20
2019-01-26T18:36:04.056Z,7.20
2019-01-26T18:38:33.431Z,7.30
2019-01-26T18:41:02.811Z,7.20
2019-01-26T18:43:43.627Z,7.20
2019-01-26T18:46:18.246Z,7.20
2019-01-26T18:48:47.815Z,7.10
2019-01-26T18:51:17.231Z,7.10
2019-01-26T18:53:53.032Z,7.10
2019-01-26T18:56:18.500Z,7.10
2019-01-26T18:58:47.899Z,7.10
2019-01-26T19:01:17.650Z,7.10
2019-01-26T19:04:22.476Z,7.10
2019-01-26T19:06:57.640Z,7.10
2019-01-26T19:09:26.947Z,7.10
2019-01-26T19:11:58.293Z,7.10
2019-01-26T19:14:27.646Z,7.10
2019-01-26T19:16:56.986Z,7.10
2019-01-26T19:19:26.447Z,7.10
2019-01-26T19:21:55.851Z,7.10
2019-01-26T19:24:28.358Z,7.10
2019-01-26T19:26:57.787Z,7.10
2019-01-26T19:29:27.329Z,7.10
2019-01-26T19:31:59.877Z,7.10
2019-01-26T19:34:29.430Z,7.10
2019-01-26T19:36:59.006Z,7.20
2019-01-26T19:39:28.406Z,7.20
2019-01-26T19:41:57.779Z,7.20
2019-01-26T19:44:27.285Z,7.20
2019-01-26T19:46:56.597Z,7.40
2019-01-26T19:49:26.099Z,7.20
2019-01-26T19:51:55.385Z,7.20
2019-01-26T19:54:26.315Z,7.20
2019-01-26T19:56:55.767Z,7.30
2019-01-26T19:59:25.369Z,7.30
2019-01-26T20:01:54.985Z,7.30
2019-01-26T20:04:24.552Z,7.30
2019-01-26T20:06:54.833Z,7.30
2019-01-26T20:09:31.287Z,7.30
2019-01-26T20:12:00.678Z,7.30
2019-01-26T20:14:30.118Z,7.30
2019-01-26T20:16:59.560Z,7.30
2019-01-26T20:19:29.160Z,7.30
2019-01-26T20:21:58.631Z,7.30
2019-01-26T20:24:28.129Z,7.30
2019-01-26T20:26:57.678Z,7.30
2019-01-26T20:29:27.126Z,7.30
2019-01-26T20:31:56.579Z,7.40
2019-01-26T20:34:26.302Z,7.40
2019-01-26T20:36:55.887Z,7.40
2019-01-26T20:39:25.500Z,7.40
2019-01-26T20:41:54.987Z,7.40
2019-01-26T20:44:24.547Z,7.40
2019-01-26T20:46:54.093Z,7.40
2019-01-26T20:49:23.774Z,7.40
2019-01-26T20:51:53.319Z,7.40
2019-01-26T20:54:22.706Z,7.50
2019-01-26T20:56:52.145Z,7.50
2019-01-26T20:59:21.618Z,7.50
2019-01-26T21:01:51.502Z,7.60
2019-01-26T21:04:21.009Z,7.60
2019-01-26T21:06:50.449Z,7.60
2019-01-26T21:09:19.841Z,7.60
2019-01-26T21:11:49.521Z,7.60
2019-01-26T21:14:19.154Z,7.60
2019-01-26T21:16:49.086Z,7.60
2019-01-26T21:19:20.199Z,7.60
2019-01-26T21:21:50.599Z,7.60
2019-01-26T21:24:20.318Z,7.70
2019-01-26T21:26:49.766Z,7.70
2019-01-26T21:29:19.401Z,7.70
2019-01-26T21:31:48.880Z,7.70
2019-01-26T21:34:19.758Z,7.70
2019-01-26T21:36:49.180Z,7.70
2019-01-26T21:39:18.841Z,7.70
2019-01-26T21:41:48.330Z,7.70
2019-01-26T21:44:18.329Z,7.70
2019-01-26T21:46:47.967Z,7.70
2019-01-26T21:49:18.899Z,7.80
2019-01-26T21:51:48.259Z,7.80
2019-01-26T21:54:17.566Z,7.80
2019-01-26T21:56:48.236Z,7.80
2019-01-26T21:59:21.070Z,7.80
2019-01-26T22:01:50.443Z,7.70
2019-01-26T22:04:20.297Z,7.70
2019-01-26T22:06:50.298Z,7.70
2019-01-26T22:09:20.034Z,7.70
2019-01-26T22:11:54.577Z,7.70
2019-01-26T22:14:29.274Z,7.70
2019-01-26T22:16:58.776Z,7.70
2019-01-26T22:19:28.314Z,7.60
2019-01-26T22:21:57.829Z,7.60
2019-01-26T22:24:30.320Z,7.60
2019-01-26T22:27:00.050Z,7.60
2019-01-26T22:29:31.323Z,7.60
2019-01-26T22:32:00.571Z,7.60
2019-01-26T22:34:29.938Z,7.60
2019-01-26T22:36:59.585Z,7.60
2019-01-26T22:39:29.520Z,7.70
2019-01-26T22:41:59.877Z,7.70
2019-01-26T22:44:29.617Z,7.70
2019-01-26T22:46:59.293Z,7.70
2019-01-26T22:49:28.917Z,7.70
2019-01-26T22:52:02.181Z,7.70
2019-01-26T22:54:38.381Z,7.70
2019-01-26T22:57:09.123Z,7.60
2019-01-26T22:59:39.887Z,7.60
2019-01-26T23:02:13.552Z,7.60
2019-01-26T23:05:21.086Z,7.50
2019-01-26T23:07:56.527Z,7.50
2019-01-26T23:10:55.465Z,7.50
2019-01-26T23:13:37.574Z,7.60
2019-01-26T23:16:43.405Z,7.60
2019-01-26T23:19:30.057Z,7.60
2019-01-26T23:22:33.817Z,7.60
2019-01-26T23:25:33.620Z,7.70
2019-01-26T23:28:57.305Z,7.70
2019-01-26T23:31:27.787Z,7.80
2019-01-26T23:33:58.341Z,7.80
2019-01-26T23:36:29.694Z,7.80
2019-01-26T23:39:02.360Z,7.90
2019-01-26T23:41:30.023Z,7.90
2019-01-26T23:43:59.513Z,7.90
2019-01-26T23:46:28.921Z,7.90
2019-01-26T23:48:59.812Z,7.90
2019-01-26T23:51:29.201Z,7.90
2019-01-26T23:54:16.861Z,7.90
2019-01-26T23:56:54.274Z,7.90
2019-01-26T23:59:23.650Z,7.90
